createdAt,value
2023-04-06T00:02:08.387Z,9.00
2023-04-06T00:05:47.583Z,6.70
2023-04-06T00:09:23.928Z,7.50
2023-04-06T00:13:01.576Z,6.60
2023-04-06T00:16:39.331Z,5.70
2023-04-06T00:20:17.111Z,7.20
2023-04-06T00:24:13.371Z,6.40
2023-04-06T00:27:55.097Z,7.70
2023-04-06T00:31:17.680Z,7.60
2023-04-06T00:34:55.665Z,7.10
2023-04-06T00:38:51.895Z,7.20
2023-04-06T00:42:33.533Z,8.70
2023-04-06T00:45:56.192Z,9.50
2023-04-06T00:49:34.722Z,5.10
2023-04-06T00:53:11.291Z,7.80
2023-04-06T00:57:07.747Z,9.60
2023-04-06T01:00:30.013Z,8.30
2023-04-06T01:04:07.873Z,8.70
2023-04-06T01:07:45.787Z,8.10
2023-04-06T01:11:41.880Z,7.80
2023-04-06T01:15:26.160Z,7.80
2023-04-06T01:18:48.471Z,8.70
2023-04-06T01:22:26.360Z,7.10
2023-04-06T01:26:03.761Z,7.00
2023-04-06T01:30:00.594Z,6.40
2023-04-06T01:33:33.609Z,7.10
2023-04-06T01:37:11.572Z,7.90
2023-04-06T01:40:48.915Z,6.00
2023-04-06T01:44:45.929Z,7.90
2023-04-06T01:48:10.504Z,7.40
2023-04-06T01:51:47.966Z,7.50
2023-04-06T01:55:44.644Z,9.30
2023-04-06T01:59:20.653Z,8.50
2023-04-06T02:03:32.016Z,11.50
2023-04-06T02:07:00.656Z,12.50
2023-04-06T02:10:38.166Z,9.70
2023-04-06T02:14:35.158Z,9.10
2023-04-06T02:17:58.515Z,7.00
2023-04-06T02:21:54.687Z,4.90
2023-04-06T02:25:17.023Z,8.40
2023-04-06T02:28:54.782Z,5.50
2023-04-06T02:32:32.307Z,6.00
2023-04-06T02:36:10.412Z,7.50
2023-04-06T02:40:07.353Z,7.20
2023-04-06T02:43:48.845Z,6.00
2023-04-06T02:47:18.377Z,6.60
2023-04-06T02:50:56.689Z,6.30
2023-04-06T02:54:52.629Z,4.90
2023-04-06T02:58:39.678Z,6.30
2023-04-06T03:02:02.286Z,4.30
2023-04-06T03:06:00.141Z,7.40
2023-04-06T03:09:44.868Z,8.30
2023-04-06T03:13:07.835Z,7.10
2023-04-06T03:17:04.023Z,6.30
2023-04-06T03:20:26.400Z,4.00
2023-04-06T03:24:04.337Z,4.80
2023-04-06T03:28:00.592Z,3.60
2023-04-06T03:31:23.181Z,4.80
2023-04-06T03:35:19.735Z,5.20
2023-04-06T03:38:41.932Z,5.70
2023-04-06T03:42:19.744Z,6.00
2023-04-06T03:46:16.104Z,5.00
2023-04-06T03:49:40.586Z,5.00
2023-04-06T03:53:16.941Z,5.40
2023-04-06T03:56:54.882Z,4.30
2023-04-06T04:00:33.832Z,3.70
2023-04-06T04:04:11.517Z,2.90
2023-04-06T04:07:47.612Z,3.70
2023-04-06T04:11:44.391Z,4.40
2023-04-06T04:15:07.552Z,3.90
2023-04-06T04:18:46.452Z,4.00
2023-04-06T04:22:41.216Z,5.80
2023-04-06T04:26:03.883Z,4.10
2023-04-06T04:29:41.188Z,4.80
2023-04-06T04:33:19.034Z,4.50
2023-04-06T04:37:15.336Z,5.00
2023-04-06T04:41:02.785Z,6.60
2023-04-06T04:44:26.607Z,8.90
2023-04-06T04:48:23.356Z,9.00
2023-04-06T04:51:53.626Z,8.30
2023-04-06T04:55:49.622Z,6.90
2023-04-06T04:59:13.747Z,5.20
2023-04-06T05:02:51.734Z,6.00
2023-04-06T05:06:29.023Z,6.30
2023-04-06T05:23:21.911Z,8.50
2023-04-06T05:27:01.187Z,8.40
2023-04-06T05:30:57.252Z,6.90
2023-04-06T05:34:39.102Z,7.30
2023-04-06T05:38:02.835Z,7.60
2023-04-06T05:42:03.853Z,6.40
2023-04-06T05:45:53.202Z,7.10
2023-04-06T05:49:35.866Z,9.40
2023-04-06T05:53:17.848Z,9.40
2023-04-06T05:56:49.061Z,8.30
2023-04-06T06:00:27.289Z,7.30
2023-04-06T06:04:23.161Z,7.30
2023-04-06T06:08:07.071Z,9.30
2023-04-06T06:11:31.407Z,9.20
2023-04-06T06:15:09.172Z,8.60
2023-04-06T06:18:46.762Z,9.80
2023-04-06T06:22:43.051Z,7.40
2023-04-06T06:26:09.533Z,9.60
2023-04-06T06:29:47.216Z,7.40
2023-04-06T06:33:27.261Z,5.20
2023-04-06T06:37:04.690Z,6.80
2023-04-06T06:40:42.288Z,6.20
2023-04-06T06:44:38.485Z,4.80
2023-04-06T06:48:21.670Z,7.70
2023-04-06T06:52:05.029Z,3.20
2023-04-06T06:55:49.222Z,6.30
2023-04-06T06:59:32.745Z,4.30
2023-04-06T07:03:17.027Z,6.50
2023-04-06T07:06:41.775Z,6.10
2023-04-06T07:10:19.567Z,7.00
2023-04-06T07:14:16.590Z,3.60
2023-04-06T07:17:42.543Z,6.20
2023-04-06T07:21:18.296Z,5.00
2023-04-06T07:24:56.326Z,4.50
2023-04-06T07:28:34.024Z,5.60
2023-04-06T07:32:11.774Z,5.00
2023-04-06T07:35:49.088Z,6.00
2023-04-06T07:39:45.880Z,4.10
2023-04-06T07:43:29.642Z,5.60
2023-04-06T07:46:55.067Z,7.10
2023-04-06T07:50:32.722Z,5.40
2023-04-06T07:54:10.494Z,5.00
2023-04-06T07:57:47.548Z,5.80
2023-04-06T08:01:26.282Z,3.40
2023-04-06T08:05:02.819Z,5.60
2023-04-06T08:08:40.655Z,5.50
2023-04-06T08:12:18.160Z,5.40
2023-04-06T08:16:15.580Z,4.90
2023-04-06T08:19:40.000Z,2.70
2023-04-06T08:23:17.703Z,4.40
2023-04-06T08:27:15.035Z,3.90
2023-04-06T08:30:59.071Z,4.10
2023-04-06T08:34:43.637Z,3.30
2023-04-06T08:38:08.720Z,3.20
2023-04-06T08:42:04.563Z,3.50
2023-04-06T08:45:48.103Z,2.10
2023-04-06T08:49:13.834Z,3.00
2023-04-06T08:52:50.775Z,3.90
2023-04-06T08:56:29.292Z,1.50
2023-04-06T09:00:08.843Z,2.60
2023-04-06T09:03:44.208Z,2.80
2023-04-06T09:07:40.611Z,3.60
2023-04-06T09:11:23.695Z,2.80
2023-04-06T09:14:48.146Z,4.00
2023-04-06T09:18:32.818Z,2.30
2023-04-06T09:22:10.870Z,4.60
2023-04-06T09:25:41.011Z,2.90
2023-04-06T09:29:28.978Z,2.20
2023-04-06T09:32:58.413Z,3.40
2023-04-06T09:36:53.318Z,2.30
2023-04-06T09:40:39.911Z,4.30
2023-04-06T09:44:11.861Z,3.00
2023-04-06T09:47:47.985Z,3.40
2023-04-06T09:51:28.043Z,3.00
2023-04-06T09:55:42.272Z,3.60
2023-04-06T09:59:43.846Z,3.70
2023-04-06T10:04:09.328Z,3.50
2023-04-06T10:07:35.924Z,3.20
2023-04-06T10:11:12.078Z,1.80
2023-04-06T10:14:50.372Z,3.40
2023-04-06T10:18:28.035Z,2.20
2023-04-06T10:22:06.208Z,3.80
2023-04-06T10:25:57.989Z,3.50
2023-04-06T10:29:49.109Z,3.10
2023-04-06T10:33:17.339Z,3.30
2023-04-06T10:36:50.790Z,2.50
2023-04-06T10:40:28.924Z,4.30
2023-04-06T10:44:06.152Z,4.10
2023-04-06T10:47:43.740Z,6.00
2023-04-06T10:51:28.587Z,4.80
2023-04-06T10:55:00.483Z,3.20
2023-04-06T10:58:37.055Z,3.60
2023-04-06T11:02:23.810Z,5.50
2023-04-06T11:05:52.609Z,3.40
2023-04-06T11:09:32.645Z,3.10
2023-04-06T11:13:37.334Z,3.70
2023-04-06T11:17:01.636Z,3.90
2023-04-06T11:20:39.433Z,2.30
2023-04-06T11:24:21.343Z,2.70
2023-04-06T11:28:13.682Z,4.20
2023-04-06T11:32:04.527Z,3.50
2023-04-06T11:35:32.334Z,3.20
2023-04-06T11:39:07.971Z,4.40
2023-04-06T11:42:53.577Z,3.10
2023-04-06T11:46:21.873Z,3.70
2023-04-06T11:50:14.231Z,2.10
2023-04-06T11:53:49.051Z,3.60
2023-04-06T11:57:37.935Z,2.60
2023-04-06T12:01:06.031Z,3.60
2023-04-06T12:04:40.093Z,3.60
2023-04-06T12:08:17.391Z,3.10
2023-04-06T12:12:13.941Z,4.50
2023-04-06T12:15:38.267Z,4.00
2023-04-06T12:19:16.068Z,3.90
2023-04-06T12:22:53.225Z,4.20
2023-04-06T12:26:32.074Z,3.40
2023-04-06T12:30:09.445Z,3.40
2023-04-06T12:34:05.315Z,4.60
2023-04-06T12:37:30.388Z,2.30
2023-04-06T12:41:07.053Z,3.80
2023-04-06T12:45:03.897Z,2.00
2023-04-06T12:48:28.490Z,4.90
2023-04-06T12:52:24.734Z,4.20
2023-04-06T12:55:49.210Z,2.80
2023-04-06T12:59:27.016Z,4.60
2023-04-06T13:03:24.036Z,4.40
2023-04-06T13:06:48.339Z,5.20
2023-04-06T13:10:26.605Z,5.10
2023-04-06T13:14:03.677Z,4.80
2023-04-06T13:18:00.871Z,5.60
2023-04-06T13:21:44.169Z,5.70
2023-04-06T13:25:09.342Z,4.80
2023-04-06T13:28:46.795Z,5.00
2023-04-06T13:32:24.290Z,4.50
2023-04-06T13:36:01.975Z,4.50
2023-04-06T13:39:39.635Z,5.70
2023-04-06T13:43:20.200Z,5.20
2023-04-06T13:46:55.559Z,2.80
2023-04-06T13:50:33.763Z,4.90
2023-04-06T13:54:29.238Z,5.70
2023-04-06T13:57:53.672Z,4.60
2023-04-06T14:01:31.187Z,3.50
2023-04-06T14:05:09.584Z,3.70
2023-04-06T14:09:05.666Z,4.10
2023-04-06T14:12:30.200Z,2.00
2023-04-06T14:16:08.584Z,4.90
2023-04-06T14:19:45.488Z,4.30
2023-04-06T14:23:42.460Z,3.70
2023-04-06T14:27:07.400Z,5.30
2023-04-06T14:31:15.327Z,5.30
2023-04-06T14:34:39.924Z,4.20
2023-04-06T14:38:36.725Z,5.50
2023-04-06T14:42:20.328Z,4.70
2023-04-06T14:45:44.637Z,4.60
2023-04-06T14:49:41.142Z,4.30
2023-04-06T14:53:05.738Z,4.60
2023-04-06T14:56:44.079Z,3.30
2023-04-06T15:00:21.455Z,4.00
2023-04-06T15:03:58.458Z,4.70
2023-04-06T15:07:36.070Z,3.50
2023-04-06T15:11:14.352Z,3.20
2023-04-06T15:15:10.988Z,5.50
2023-04-06T15:18:36.322Z,4.20
2023-04-06T15:22:12.751Z,4.40
2023-04-06T15:25:50.734Z,3.60
2023-04-06T15:29:28.041Z,4.40
2023-04-06T15:33:08.102Z,4.20
2023-04-06T15:37:04.213Z,6.10
2023-04-06T15:40:28.395Z,5.20
2023-04-06T15:44:25.787Z,6.60
2023-04-06T15:48:09.276Z,6.10
2023-04-06T15:51:33.768Z,5.60
2023-04-06T15:55:11.028Z,5.50
2023-04-06T15:58:48.789Z,3.90
2023-04-06T16:02:27.032Z,4.90
2023-04-06T16:06:08.998Z,2.80
2023-04-06T16:10:00.624Z,6.60
2023-04-06T16:13:24.930Z,5.90
2023-04-06T16:17:21.232Z,4.50
2023-04-06T16:20:46.131Z,6.20
2023-04-06T16:24:41.899Z,6.80
2023-04-06T16:28:25.070Z,5.80
2023-04-06T16:31:49.306Z,7.40
2023-04-06T16:35:27.121Z,5.90
2023-04-06T16:39:23.244Z,6.50
2023-04-06T16:42:48.302Z,5.10
2023-04-06T16:46:35.903Z,6.50
2023-04-06T16:50:21.725Z,3.30
2023-04-06T16:53:47.924Z,6.40
2023-04-06T16:57:42.356Z,6.40
2023-04-06T17:01:07.225Z,8.30
2023-04-06T17:04:45.416Z,7.90
2023-04-06T17:08:42.609Z,5.60
2023-04-06T17:12:09.467Z,6.10
2023-04-06T17:15:45.520Z,9.80
2023-04-06T17:19:23.207Z,6.90
2023-04-06T17:23:00.928Z,7.20
2023-04-06T17:26:57.433Z,6.10
2023-04-06T17:30:22.382Z,8.40
2023-04-06T17:33:59.999Z,6.30
2023-04-06T17:37:56.376Z,6.30
2023-04-06T17:41:39.817Z,6.50
2023-04-06T17:45:04.376Z,8.40
2023-04-06T17:48:43.974Z,8.80
2023-04-06T17:52:19.472Z,8.60
2023-04-06T17:55:57.339Z,10.10
2023-04-06T17:59:35.354Z,13.00
2023-04-06T18:03:31.856Z,12.70
2023-04-06T18:06:56.802Z,12.60
2023-04-06T18:10:53.472Z,13.10
2023-04-06T18:14:19.006Z,11.70
2023-04-06T18:17:56.865Z,10.50
2023-04-06T18:21:53.280Z,11.70
2023-04-06T18:25:18.727Z,12.00
2023-04-06T18:28:56.045Z,11.30
2023-04-06T18:32:33.301Z,10.80
2023-04-06T18:36:30.766Z,11.70
2023-04-06T18:40:31.319Z,14.10
2023-04-06T18:44:14.621Z,10.70
2023-04-06T18:47:41.749Z,6.20
2023-04-06T18:51:41.354Z,12.00
2023-04-06T18:55:07.422Z,12.80
2023-04-06T18:59:02.345Z,9.90
2023-04-06T19:02:26.732Z,9.60
2023-04-06T19:06:07.845Z,7.80
2023-04-06T19:09:41.964Z,5.80
2023-04-06T19:13:38.505Z,9.60
2023-04-06T19:17:04.147Z,9.70
2023-04-06T19:20:40.928Z,7.30
2023-04-06T19:24:18.706Z,9.80
2023-04-06T19:27:56.712Z,12.10
2023-04-06T19:31:53.221Z,11.00
2023-04-06T19:35:17.961Z,9.50
2023-04-06T19:39:16.693Z,10.10
2023-04-06T19:42:41.646Z,4.60
2023-04-06T19:46:38.434Z,6.70
2023-04-06T19:50:23.297Z,6.60
2023-04-06T19:54:07.284Z,8.40
2023-04-06T19:57:51.792Z,10.50
2023-04-06T20:01:16.018Z,8.30
2023-04-06T20:04:53.502Z,7.50
2023-04-06T20:08:31.451Z,8.30
2023-04-06T20:12:09.214Z,7.30
2023-04-06T20:15:46.723Z,6.40
2023-04-06T20:19:24.528Z,6.50
2023-04-06T20:23:02.114Z,9.90
2023-04-06T20:26:40.318Z,7.80
2023-04-06T20:30:36.526Z,5.80
2023-04-06T20:34:01.611Z,4.90
2023-04-06T20:37:38.741Z,6.90
2023-04-06T20:41:16.565Z,6.50
2023-04-06T20:44:57.024Z,7.00
2023-04-06T20:48:33.597Z,7.20
2023-04-06T20:52:09.609Z,5.80
2023-04-06T20:56:05.739Z,6.60
2023-04-06T20:59:30.301Z,7.50
2023-04-06T21:03:27.124Z,6.50
2023-04-06T21:06:51.864Z,7.20
2023-04-06T21:10:48.344Z,8.00
2023-04-06T21:14:13.372Z,6.00
2023-04-06T21:17:51.229Z,4.80
2023-04-06T21:21:47.660Z,7.70
2023-04-06T21:25:31.814Z,6.40
2023-04-06T21:28:56.238Z,6.70
2023-04-06T21:32:34.720Z,6.90
2023-04-06T21:36:11.550Z,6.40
2023-04-06T21:39:49.148Z,3.70
2023-04-06T21:43:26.806Z,6.60
2023-04-06T21:47:04.670Z,6.50
2023-04-06T21:50:42.279Z,6.20
2023-04-06T21:54:19.860Z,4.40
2023-04-06T21:57:57.406Z,5.40
2023-04-06T22:01:56.658Z,6.60
2023-04-06T22:05:40.478Z,6.20
2023-04-06T22:09:05.659Z,6.40
2023-04-06T22:12:42.779Z,5.30
2023-04-06T22:16:20.146Z,6.60
2023-04-06T22:19:58.045Z,6.70
2023-04-06T22:23:36.087Z,3.50
2023-04-06T22:27:13.258Z,7.20
2023-04-06T22:30:50.838Z,8.90
2023-04-06T22:34:47.580Z,7.80
2023-04-06T22:38:30.442Z,7.80
2023-04-06T22:41:54.837Z,7.10
2023-04-06T22:45:32.189Z,7.20
2023-04-06T22:49:10.128Z,7.90
2023-04-06T22:52:47.741Z,7.20
2023-04-06T22:56:25.747Z,7.80
2023-04-06T23:00:24.266Z,10.20
2023-04-06T23:04:09.309Z,6.60
2023-04-06T23:07:52.648Z,8.60
2023-04-06T23:11:36.094Z,9.50
2023-04-06T23:15:00.523Z,7.90
2023-04-06T23:18:39.751Z,7.90
2023-04-06T23:22:34.651Z,7.70
2023-04-06T23:25:59.094Z,7.70
2023-04-06T23:29:57.036Z,6.60
2023-04-06T23:33:22.684Z,5.50
2023-04-06T23:37:03.214Z,8.00
2023-04-06T23:40:38.677Z,7.50
2023-04-06T23:44:34.724Z,6.70
2023-04-06T23:48:18.190Z,7.50
2023-04-06T23:52:01.918Z,8.50
2023-04-06T23:55:48.039Z,9.40
2023-04-06T23:59:12.258Z,7.30
